sensor_id;sensor_type;location;lat;lon;timestamp;P1;durP1;ratioP1;P2;durP2;ratioP2
3175;SDS011;1599;51.564;6.990;2023-05-24T00:01:23;15.10;;;3.77;;
3175;SDS011;1599;51.564;6.990;2023-05-24T00:03:50;9.63;;;2.90;;
3175;SDS011;1599;51.564;6.990;2023-05-24T00:06:17;11.53;;;3.47;;
3175;SDS011;1599;51.564;6.990;2023-05-24T00:08:44;10.23;;;4.30;;
3175;SDS011;1599;51.564;6.990;2023-05-24T00:11:10;8.37;;;3.03;;
3175;SDS011;1599;51.564;6.990;2023-05-24T00:13:36;12.07;;;4.10;;
3175;SDS011;1599;51.564;6.990;2023-05-24T00:16:02;15.10;;;3.60;;
3175;SDS011;1599;51.564;6.990;2023-05-24T00:18:29;7.07;;;2.70;;
3175;SDS011;1599;51.564;6.990;2023-05-24T00:20:58;6.40;;;3.67;;
3175;SDS011;1599;51.564;6.990;2023-05-24T00:23:24;10.77;;;3.40;;
3175;SDS011;1599;51.564;6.990;2023-05-24T00:25:51;8.10;;;3.17;;
3175;SDS011;1599;51.564;6.990;2023-05-24T00:28:17;13.63;;;3.30;;
3175;SDS011;1599;51.564;6.990;2023-05-24T00:30:42;12.50;;;4.00;;
3175;SDS011;1599;51.564;6.990;2023-05-24T00:33:08;12.50;;;3.50;;
3175;SDS011;1599;51.564;6.990;2023-05-24T00:35:35;11.60;;;4.27;;
3175;SDS011;1599;51.564;6.990;2023-05-24T00:38:01;7.50;;;3.60;;
3175;SDS011;1599;51.564;6.990;2023-05-24T00:40:27;10.63;;;3.20;;
3175;SDS011;1599;51.564;6.990;2023-05-24T00:46:36;11.30;;;4.13;;
3175;SDS011;1599;51.564;6.990;2023-05-24T01:16:17;8.23;;;3.77;;
3175;SDS011;1599;51.564;6.990;2023-05-24T01:19:26;12.90;;;4.23;;
3175;SDS011;1599;51.564;6.990;2023-05-24T01:24:51;12.60;;;3.97;;
3175;SDS011;1599;51.564;6.990;2023-05-24T01:27:18;14.83;;;4.17;;
3175;SDS011;1599;51.564;6.990;2023-05-24T01:29:47;14.70;;;5.23;;
3175;SDS011;1599;51.564;6.990;2023-05-24T01:32:19;13.67;;;4.33;;
3175;SDS011;1599;51.564;6.990;2023-05-24T01:34:46;10.53;;;4.50;;
3175;SDS011;1599;51.564;6.990;2023-05-24T01:37:12;15.43;;;4.13;;
3175;SDS011;1599;51.564;6.990;2023-05-24T01:39:38;14.63;;;4.57;;
3175;SDS011;1599;51.564;6.990;2023-05-24T01:45:05;18.43;;;4.90;;
3175;SDS011;1599;51.564;6.990;2023-05-24T01:50:25;13.10;;;4.57;;
3175;SDS011;1599;51.564;6.990;2023-05-24T01:52:57;21.77;;;5.60;;
3175;SDS011;1599;51.564;6.990;2023-05-24T01:55:26;6.10;;;4.03;;
3175;SDS011;1599;51.564;6.990;2023-05-24T01:57:54;15.07;;;6.00;;
3175;SDS011;1599;51.564;6.990;2023-05-24T02:00:26;16.40;;;5.13;;
3175;SDS011;1599;51.564;6.990;2023-05-24T02:02:53;13.00;;;4.77;;
3175;SDS011;1599;51.564;6.990;2023-05-24T02:05:31;13.33;;;5.70;;
3175;SDS011;1599;51.564;6.990;2023-05-24T02:15:36;19.10;;;5.73;;
3175;SDS011;1599;51.564;6.990;2023-05-24T02:18:01;15.23;;;5.67;;
3175;SDS011;1599;51.564;6.990;2023-05-24T02:20:28;21.23;;;6.20;;
3175;SDS011;1599;51.564;6.990;2023-05-24T02:23:00;11.87;;;5.03;;
3175;SDS011;1599;51.564;6.990;2023-05-24T02:25:29;20.30;;;6.10;;
3175;SDS011;1599;51.564;6.990;2023-05-24T02:27:55;11.67;;;4.67;;
3175;SDS011;1599;51.564;6.990;2023-05-24T02:30:21;12.93;;;5.80;;
3175;SDS011;1599;51.564;6.990;2023-05-24T02:32:47;14.63;;;5.03;;
3175;SDS011;1599;51.564;6.990;2023-05-24T02:35:12;10.10;;;5.00;;
3175;SDS011;1599;51.564;6.990;2023-05-24T03:11:56;12.67;;;5.77;;
3175;SDS011;1599;51.564;6.990;2023-05-24T03:26:07;14.13;;;6.07;;
3175;SDS011;1599;51.564;6.990;2023-05-24T03:35:15;17.00;;;6.80;;
3175;SDS011;1599;51.564;6.990;2023-05-24T03:37:41;18.10;;;5.93;;
3175;SDS011;1599;51.564;6.990;2023-05-24T03:40:07;14.57;;;6.30;;
3175;SDS011;1599;51.564;6.990;2023-05-24T03:42:32;13.07;;;6.13;;
3175;SDS011;1599;51.564;6.990;2023-05-24T03:44:58;23.90;;;6.80;;
3175;SDS011;1599;51.564;6.990;2023-05-24T04:27:40;19.27;;;7.90;;
3175;SDS011;1599;51.564;6.990;2023-05-24T04:30:06;12.30;;;6.17;;
3175;SDS011;1599;51.564;6.990;2023-05-24T04:32:33;21.37;;;6.93;;
3175;SDS011;1599;51.564;6.990;2023-05-24T04:34:59;15.90;;;7.30;;
3175;SDS011;1599;51.564;6.990;2023-05-24T04:37:26;20.27;;;7.00;;
3175;SDS011;1599;51.564;6.990;2023-05-24T04:39:53;22.20;;;7.90;;
3175;SDS011;1599;51.564;6.990;2023-05-24T04:42:19;13.37;;;6.63;;
3175;SDS011;1599;51.564;6.990;2023-05-24T04:48:03;11.50;;;5.90;;
3175;SDS011;1599;51.564;6.990;2023-05-24T04:50:29;18.23;;;6.10;;
3175;SDS011;1599;51.564;6.990;2023-05-24T04:52:55;17.27;;;6.90;;
3175;SDS011;1599;51.564;6.990;2023-05-24T04:55:21;20.13;;;7.70;;
3175;SDS011;1599;51.564;6.990;2023-05-24T04:57:47;16.67;;;7.27;;
3175;SDS011;1599;51.564;6.990;2023-05-24T05:00:12;21.27;;;8.23;;
3175;SDS011;1599;51.564;6.990;2023-05-24T05:02:38;15.70;;;6.47;;
3175;SDS011;1599;51.564;6.990;2023-05-24T05:05:04;20.23;;;7.83;;
3175;SDS011;1599;51.564;6.990;2023-05-24T05:07:30;21.33;;;8.40;;
3175;SDS011;1599;51.564;6.990;2023-05-24T05:09:55;21.00;;;6.57;;
3175;SDS011;1599;51.564;6.990;2023-05-24T05:12:21;17.60;;;6.77;;
3175;SDS011;1599;51.564;6.990;2023-05-24T05:14:46;19.63;;;7.60;;
3175;SDS011;1599;51.564;6.990;2023-05-24T05:17:12;12.13;;;6.47;;
3175;SDS011;1599;51.564;6.990;2023-05-24T05:19:38;15.87;;;6.60;;
3175;SDS011;1599;51.564;6.990;2023-05-24T05:22:03;15.93;;;6.27;;
3175;SDS011;1599;51.564;6.990;2023-05-24T05:24:29;23.20;;;7.73;;
3175;SDS011;1599;51.564;6.990;2023-05-24T05:26:55;19.47;;;6.60;;
3175;SDS011;1599;51.564;6.990;2023-05-24T05:29:24;25.07;;;7.70;;
3175;SDS011;1599;51.564;6.990;2023-05-24T05:31:49;17.93;;;6.10;;
3175;SDS011;1599;51.564;6.990;2023-05-24T05:34:15;20.23;;;5.80;;
3175;SDS011;1599;51.564;6.990;2023-05-24T05:36:40;14.17;;;6.00;;
3175;SDS011;1599;51.564;6.990;2023-05-24T05:39:06;14.67;;;6.37;;
3175;SDS011;1599;51.564;6.990;2023-05-24T05:41:36;18.60;;;7.80;;
3175;SDS011;1599;51.564;6.990;2023-05-24T05:50:52;23.37;;;6.70;;
3175;SDS011;1599;51.564;6.990;2023-05-24T05:53:18;18.67;;;5.23;;
3175;SDS011;1599;51.564;6.990;2023-05-24T05:55:43;28.77;;;7.10;;
3175;SDS011;1599;51.564;6.990;2023-05-24T05:58:09;30.07;;;9.07;;
3175;SDS011;1599;51.564;6.990;2023-05-24T06:04:10;26.93;;;6.60;;
3175;SDS011;1599;51.564;6.990;2023-05-24T06:24:02;17.77;;;7.53;;
3175;SDS011;1599;51.564;6.990;2023-05-24T06:33:07;18.90;;;6.93;;
3175;SDS011;1599;51.564;6.990;2023-05-24T06:35:32;19.70;;;5.87;;
3175;SDS011;1599;51.564;6.990;2023-05-24T06:37:58;22.20;;;6.97;;
3175;SDS011;1599;51.564;6.990;2023-05-24T06:40:23;14.60;;;5.23;;
3175;SDS011;1599;51.564;6.990;2023-05-24T06:42:49;19.07;;;5.83;;
3175;SDS011;1599;51.564;6.990;2023-05-24T06:45:14;14.10;;;6.27;;
3175;SDS011;1599;51.564;6.990;2023-05-24T06:47:40;18.20;;;5.77;;
3175;SDS011;1599;51.564;6.990;2023-05-24T06:50:06;18.63;;;5.73;;
3175;SDS011;1599;51.564;6.990;2023-05-24T06:52:32;21.70;;;4.67;;
3175;SDS011;1599;51.564;6.990;2023-05-24T06:54:58;20.07;;;5.63;;
3175;SDS011;1599;51.564;6.990;2023-05-24T06:57:23;12.97;;;3.90;;
3175;SDS011;1599;51.564;6.990;2023-05-24T06:59:49;14.10;;;4.83;;
3175;SDS011;1599;51.564;6.990;2023-05-24T07:02:27;15.97;;;4.97;;
3175;SDS011;1599;51.564;6.990;2023-05-24T07:04:53;12.90;;;5.07;;
3175;SDS011;1599;51.564;6.990;2023-05-24T07:08:17;15.57;;;5.20;;
3175;SDS011;1599;51.564;6.990;2023-05-24T07:17:27;14.37;;;5.33;;
3175;SDS011;1599;51.564;6.990;2023-05-24T07:30:06;11.93;;;4.97;;
3175;SDS011;1599;51.564;6.990;2023-05-24T07:35:56;15.00;;;5.30;;
3175;SDS011;1599;51.564;6.990;2023-05-24T07:38:22;11.30;;;4.37;;
3175;SDS011;1599;51.564;6.990;2023-05-24T07:40:47;11.07;;;4.63;;
3175;SDS011;1599;51.564;6.990;2023-05-24T07:43:13;16.27;;;5.10;;
3175;SDS011;1599;51.564;6.990;2023-05-24T07:48:59;14.23;;;5.50;;
3175;SDS011;1599;51.564;6.990;2023-05-24T07:51:24;12.83;;;3.80;;
3175;SDS011;1599;51.564;6.990;2023-05-24T07:53:50;14.50;;;5.47;;
3175;SDS011;1599;51.564;6.990;2023-05-24T07:56:16;21.37;;;5.00;;
3175;SDS011;1599;51.564;6.990;2023-05-24T08:02:04;14.47;;;4.33;;
3175;SDS011;1599;51.564;6.990;2023-05-24T08:04:30;12.47;;;4.93;;
3175;SDS011;1599;51.564;6.990;2023-05-24T08:06:57;15.53;;;5.00;;
3175;SDS011;1599;51.564;6.990;2023-05-24T08:09:25;15.80;;;4.70;;
3175;SDS011;1599;51.564;6.990;2023-05-24T08:11:51;16.87;;;4.37;;
3175;SDS011;1599;51.564;6.990;2023-05-24T08:20:29;17.33;;;4.83;;
3175;SDS011;1599;51.564;6.990;2023-05-24T08:29:17;17.33;;;5.10;;
3175;SDS011;1599;51.564;6.990;2023-05-24T08:52:18;11.97;;;4.47;;
3175;SDS011;1599;51.564;6.990;2023-05-24T08:54:45;16.90;;;5.33;;
3175;SDS011;1599;51.564;6.990;2023-05-24T08:57:11;16.93;;;4.57;;
3175;SDS011;1599;51.564;6.990;2023-05-24T08:59:49;15.70;;;4.63;;
3175;SDS011;1599;51.564;6.990;2023-05-24T09:02:16;11.97;;;4.20;;
3175;SDS011;1599;51.564;6.990;2023-05-24T09:08:04;13.53;;;4.10;;
3175;SDS011;1599;51.564;6.990;2023-05-24T09:10:31;13.83;;;4.10;;
3175;SDS011;1599;51.564;6.990;2023-05-24T09:12:57;10.70;;;4.23;;
3175;SDS011;1599;51.564;6.990;2023-05-24T09:25:20;16.40;;;4.50;;
3175;SDS011;1599;51.564;6.990;2023-05-24T09:34:28;10.70;;;4.27;;
3175;SDS011;1599;51.564;6.990;2023-05-24T09:40:25;14.30;;;4.83;;
3175;SDS011;1599;51.564;6.990;2023-05-24T09:49:36;17.10;;;4.90;;
3175;SDS011;1599;51.564;6.990;2023-05-24T09:59:05;15.40;;;4.07;;
3175;SDS011;1599;51.564;6.990;2023-05-24T10:01:34;16.50;;;5.20;;
3175;SDS011;1599;51.564;6.990;2023-05-24T10:07:41;11.13;;;4.33;;
3175;SDS011;1599;51.564;6.990;2023-05-24T10:14:23;11.27;;;4.70;;
3175;SDS011;1599;51.564;6.990;2023-05-24T10:16:49;14.37;;;5.23;;
3175;SDS011;1599;51.564;6.990;2023-05-24T10:26:02;14.93;;;4.20;;
3175;SDS011;1599;51.564;6.990;2023-05-24T10:28:30;10.57;;;4.30;;
3175;SDS011;1599;51.564;6.990;2023-05-24T11:11:07;10.20;;;4.33;;
3175;SDS011;1599;51.564;6.990;2023-05-24T11:13:45;11.80;;;5.80;;
3175;SDS011;1599;51.564;6.990;2023-05-24T11:16:31;8.50;;;4.27;;
3175;SDS011;1599;51.564;6.990;2023-05-24T11:18:58;7.80;;;4.27;;
3175;SDS011;1599;51.564;6.990;2023-05-24T11:21:45;12.50;;;4.50;;
3175;SDS011;1599;51.564;6.990;2023-05-24T11:24:16;13.87;;;4.80;;
3175;SDS011;1599;51.564;6.990;2023-05-24T11:26:42;13.00;;;4.83;;
3175;SDS011;1599;51.564;6.990;2023-05-24T11:29:08;8.10;;;3.83;;
3175;SDS011;1599;51.564;6.990;2023-05-24T11:31:34;11.20;;;4.40;;
3175;SDS011;1599;51.564;6.990;2023-05-24T11:34:03;9.93;;;5.10;;
3175;SDS011;1599;51.564;6.990;2023-05-24T11:36:31;13.00;;;4.30;;
3175;SDS011;1599;51.564;6.990;2023-05-24T11:38:57;11.17;;;4.77;;
3175;SDS011;1599;51.564;6.990;2023-05-24T11:41:23;7.97;;;4.97;;
3175;SDS011;1599;51.564;6.990;2023-05-24T11:43:49;7.50;;;3.93;;
3175;SDS011;1599;51.564;6.990;2023-05-24T11:49:25;13.10;;;4.57;;
3175;SDS011;1599;51.564;6.990;2023-05-24T11:55:22;12.43;;;4.57;;
3175;SDS011;1599;51.564;6.990;2023-05-24T11:57:49;10.40;;;4.40;;
3175;SDS011;1599;51.564;6.990;2023-05-24T12:00:24;12.07;;;4.60;;
3175;SDS011;1599;51.564;6.990;2023-05-24T12:02:51;10.83;;;4.70;;
3175;SDS011;1599;51.564;6.990;2023-05-24T12:05:17;13.60;;;5.30;;
3175;SDS011;1599;51.564;6.990;2023-05-24T12:07:43;15.53;;;6.43;;
3175;SDS011;1599;51.564;6.990;2023-05-24T12:24:07;8.73;;;4.17;;
3175;SDS011;1599;51.564;6.990;2023-05-24T12:29:56;14.67;;;5.60;;
3175;SDS011;1599;51.564;6.990;2023-05-24T12:32:46;10.93;;;4.40;;
3175;SDS011;1599;51.564;6.990;2023-05-24T12:56:21;11.67;;;4.97;;
3175;SDS011;1599;51.564;6.990;2023-05-24T12:58:51;11.13;;;4.33;;
3175;SDS011;1599;51.564;6.990;2023-05-24T13:01:17;10.60;;;5.17;;
3175;SDS011;1599;51.564;6.990;2023-05-24T13:03:43;12.23;;;4.57;;
3175;SDS011;1599;51.564;6.990;2023-05-24T13:06:08;13.23;;;4.87;;
3175;SDS011;1599;51.564;6.990;2023-05-24T13:40:11;11.53;;;5.30;;
3175;SDS011;1599;51.564;6.990;2023-05-24T13:42:37;15.50;;;6.07;;
3175;SDS011;1599;51.564;6.990;2023-05-24T13:45:03;11.37;;;4.57;;
3175;SDS011;1599;51.564;6.990;2023-05-24T13:47:29;11.50;;;5.10;;
3175;SDS011;1599;51.564;6.990;2023-05-24T13:49:55;12.63;;;4.80;;
3175;SDS011;1599;51.564;6.990;2023-05-24T13:52:21;11.73;;;6.70;;
3175;SDS011;1599;51.564;6.990;2023-05-24T13:54:47;9.80;;;4.63;;
3175;SDS011;1599;51.564;6.990;2023-05-24T13:57:13;12.67;;;5.47;;
3175;SDS011;1599;51.564;6.990;2023-05-24T13:59:40;11.87;;;5.77;;
3175;SDS011;1599;51.564;6.990;2023-05-24T14:02:06;13.20;;;5.23;;
3175;SDS011;1599;51.564;6.990;2023-05-24T14:04:31;17.20;;;5.20;;
3175;SDS011;1599;51.564;6.990;2023-05-24T14:06:57;11.80;;;5.60;;
3175;SDS011;1599;51.564;6.990;2023-05-24T14:09:22;13.30;;;5.50;;
3175;SDS011;1599;51.564;6.990;2023-05-24T14:11:50;10.70;;;6.17;;
3175;SDS011;1599;51.564;6.990;2023-05-24T14:14:16;10.40;;;5.50;;
3175;SDS011;1599;51.564;6.990;2023-05-24T14:16:41;8.93;;;4.53;;
3175;SDS011;1599;51.564;6.990;2023-05-24T14:19:07;12.80;;;5.53;;
3175;SDS011;1599;51.564;6.990;2023-05-24T14:21:33;13.43;;;5.33;;
3175;SDS011;1599;51.564;6.990;2023-05-24T14:23:59;13.30;;;4.30;;
3175;SDS011;1599;51.564;6.990;2023-05-24T14:26:28;14.20;;;5.37;;
3175;SDS011;1599;51.564;6.990;2023-05-24T14:28:55;11.77;;;5.00;;
3175;SDS011;1599;51.564;6.990;2023-05-24T14:31:21;11.40;;;5.00;;
3175;SDS011;1599;51.564;6.990;2023-05-24T14:33:47;14.13;;;6.07;;
3175;SDS011;1599;51.564;6.990;2023-05-24T14:36:14;15.90;;;5.80;;
3175;SDS011;1599;51.564;6.990;2023-05-24T14:38:39;12.70;;;5.23;;
3175;SDS011;1599;51.564;6.990;2023-05-24T14:41:05;8.87;;;4.90;;
3175;SDS011;1599;51.564;6.990;2023-05-24T14:43:32;21.23;;;6.83;;
3175;SDS011;1599;51.564;6.990;2023-05-24T14:45:57;10.00;;;5.30;;
3175;SDS011;1599;51.564;6.990;2023-05-24T14:48:23;12.83;;;4.30;;
3175;SDS011;1599;51.564;6.990;2023-05-24T14:50:48;9.50;;;4.60;;
3175;SDS011;1599;51.564;6.990;2023-05-24T14:53:14;13.63;;;5.10;;
3175;SDS011;1599;51.564;6.990;2023-05-24T14:55:40;13.27;;;5.03;;
3175;SDS011;1599;51.564;6.990;2023-05-24T14:58:10;14.80;;;5.63;;
3175;SDS011;1599;51.564;6.990;2023-05-24T15:00:36;9.67;;;4.90;;
3175;SDS011;1599;51.564;6.990;2023-05-24T15:03:03;11.87;;;5.30;;
3175;SDS011;1599;51.564;6.990;2023-05-24T15:07:57;11.80;;;5.07;;
3175;SDS011;1599;51.564;6.990;2023-05-24T15:10:23;10.07;;;5.20;;
3175;SDS011;1599;51.564;6.990;2023-05-24T15:12:48;10.00;;;5.47;;
3175;SDS011;1599;51.564;6.990;2023-05-24T15:15:15;11.20;;;5.13;;
3175;SDS011;1599;51.564;6.990;2023-05-24T15:17:42;15.83;;;4.90;;
3175;SDS011;1599;51.564;6.990;2023-05-24T15:20:08;13.33;;;5.60;;
3175;SDS011;1599;51.564;6.990;2023-05-24T15:22:34;10.63;;;5.00;;
3175;SDS011;1599;51.564;6.990;2023-05-24T15:24:59;9.30;;;5.20;;
3175;SDS011;1599;51.564;6.990;2023-05-24T15:27:25;11.03;;;5.30;;
3175;SDS011;1599;51.564;6.990;2023-05-24T15:29:51;11.77;;;4.63;;
3175;SDS011;1599;51.564;6.990;2023-05-24T15:32:22;12.67;;;5.20;;
3175;SDS011;1599;51.564;6.990;2023-05-24T15:34:48;11.93;;;5.43;;
3175;SDS011;1599;51.564;6.990;2023-05-24T15:37:14;16.73;;;5.40;;
3175;SDS011;1599;51.564;6.990;2023-05-24T15:39:43;10.30;;;5.93;;
3175;SDS011;1599;51.564;6.990;2023-05-24T15:42:09;13.20;;;6.53;;
3175;SDS011;1599;51.564;6.990;2023-05-24T15:44:34;9.23;;;5.37;;
3175;SDS011;1599;51.564;6.990;2023-05-24T15:47:00;15.67;;;5.63;;
3175;SDS011;1599;51.564;6.990;2023-05-24T15:56:29;12.40;;;4.83;;
3175;SDS011;1599;51.564;6.990;2023-05-24T15:59:53;11.60;;;4.80;;
3175;SDS011;1599;51.564;6.990;2023-05-24T16:02:18;9.70;;;4.83;;
3175;SDS011;1599;51.564;6.990;2023-05-24T16:04:44;13.80;;;5.50;;
3175;SDS011;1599;51.564;6.990;2023-05-24T16:07:09;14.00;;;5.43;;
3175;SDS011;1599;51.564;6.990;2023-05-24T16:09:35;16.33;;;5.93;;
3175;SDS011;1599;51.564;6.990;2023-05-24T16:12:00;11.80;;;7.20;;
3175;SDS011;1599;51.564;6.990;2023-05-24T16:14:26;13.90;;;5.20;;
3175;SDS011;1599;51.564;6.990;2023-05-24T16:16:52;14.53;;;5.27;;
3175;SDS011;1599;51.564;6.990;2023-05-24T16:19:22;11.67;;;5.37;;
3175;SDS011;1599;51.564;6.990;2023-05-24T16:29:41;10.47;;;4.60;;
3175;SDS011;1599;51.564;6.990;2023-05-24T16:32:06;7.93;;;5.33;;
3175;SDS011;1599;51.564;6.990;2023-05-24T16:34:32;11.03;;;5.20;;
3175;SDS011;1599;51.564;6.990;2023-05-24T16:36:58;10.17;;;4.70;;
3175;SDS011;1599;51.564;6.990;2023-05-24T16:52:50;11.70;;;5.73;;
3175;SDS011;1599;51.564;6.990;2023-05-24T16:55:15;14.80;;;6.00;;
3175;SDS011;1599;51.564;6.990;2023-05-24T16:57:41;15.20;;;5.20;;
3175;SDS011;1599;51.564;6.990;2023-05-24T17:00:07;13.10;;;5.17;;
3175;SDS011;1599;51.564;6.990;2023-05-24T17:02:33;10.93;;;4.87;;
3175;SDS011;1599;51.564;6.990;2023-05-24T17:04:59;12.83;;;5.13;;
3175;SDS011;1599;51.564;6.990;2023-05-24T17:07:25;10.53;;;4.67;;
3175;SDS011;1599;51.564;6.990;2023-05-24T17:09:50;11.17;;;5.20;;
3175;SDS011;1599;51.564;6.990;2023-05-24T17:12:16;15.70;;;5.17;;
3175;SDS011;1599;51.564;6.990;2023-05-24T17:14:42;12.57;;;5.50;;
3175;SDS011;1599;51.564;6.990;2023-05-24T17:17:08;13.87;;;6.00;;
3175;SDS011;1599;51.564;6.990;2023-05-24T17:19:34;11.90;;;5.70;;
3175;SDS011;1599;51.564;6.990;2023-05-24T17:22:00;9.93;;;4.93;;
3175;SDS011;1599;51.564;6.990;2023-05-24T17:24:26;15.77;;;6.77;;
3175;SDS011;1599;51.564;6.990;2023-05-24T17:26:53;9.63;;;4.80;;
3175;SDS011;1599;51.564;6.990;2023-05-24T17:29:47;6.93;;;3.90;;
3175;SDS011;1599;51.564;6.990;2023-05-24T17:36:27;12.17;;;5.17;;
3175;SDS011;1599;51.564;6.990;2023-05-24T17:39:05;12.77;;;4.67;;
3175;SDS011;1599;51.564;6.990;2023-05-24T17:45:13;7.77;;;4.53;;
3175;SDS011;1599;51.564;6.990;2023-05-24T17:51:21;10.50;;;5.10;;
3175;SDS011;1599;51.564;6.990;2023-05-24T17:54:10;9.30;;;4.93;;
3175;SDS011;1599;51.564;6.990;2023-05-24T18:01:10;8.93;;;4.50;;
3175;SDS011;1599;51.564;6.990;2023-05-24T18:04:01;9.23;;;4.53;;
3175;SDS011;1599;51.564;6.990;2023-05-24T18:06:30;9.87;;;4.83;;
3175;SDS011;1599;51.564;6.990;2023-05-24T18:13:13;10.40;;;4.90;;
3175;SDS011;1599;51.564;6.990;2023-05-24T18:15:56;10.03;;;4.87;;
3175;SDS011;1599;51.564;6.990;2023-05-24T18:18:22;12.50;;;5.20;;
3175;SDS011;1599;51.564;6.990;2023-05-24T18:21:57;8.20;;;4.40;;
3175;SDS011;1599;51.564;6.990;2023-05-24T18:24:24;9.70;;;4.57;;
3175;SDS011;1599;51.564;6.990;2023-05-24T18:26:49;9.03;;;5.40;;
3175;SDS011;1599;51.564;6.990;2023-05-24T18:29:15;9.23;;;4.70;;
3175;SDS011;1599;51.564;6.990;2023-05-24T18:31:41;13.07;;;4.87;;
3175;SDS011;1599;51.564;6.990;2023-05-24T18:34:07;8.80;;;4.20;;
3175;SDS011;1599;51.564;6.990;2023-05-24T18:36:33;15.17;;;4.23;;
3175;SDS011;1599;51.564;6.990;2023-05-24T18:38:58;10.23;;;4.50;;
3175;SDS011;1599;51.564;6.990;2023-05-24T18:41:24;7.50;;;4.23;;
3175;SDS011;1599;51.564;6.990;2023-05-24T18:43:50;9.43;;;5.37;;
3175;SDS011;1599;51.564;6.990;2023-05-24T18:46:15;9.63;;;4.07;;
3175;SDS011;1599;51.564;6.990;2023-05-24T18:48:41;8.80;;;3.83;;
3175;SDS011;1599;51.564;6.990;2023-05-24T18:51:08;9.93;;;4.63;;
3175;SDS011;1599;51.564;6.990;2023-05-24T18:53:34;7.00;;;4.10;;
3175;SDS011;1599;51.564;6.990;2023-05-24T18:56:00;12.97;;;5.03;;
3175;SDS011;1599;51.564;6.990;2023-05-24T18:58:26;9.40;;;4.30;;
3175;SDS011;1599;51.564;6.990;2023-05-24T19:00:52;7.90;;;4.00;;
3175;SDS011;1599;51.564;6.990;2023-05-24T19:03:18;9.93;;;5.27;;
3175;SDS011;1599;51.564;6.990;2023-05-24T19:05:43;15.43;;;4.87;;
3175;SDS011;1599;51.564;6.990;2023-05-24T19:08:09;8.20;;;4.60;;
3175;SDS011;1599;51.564;6.990;2023-05-24T19:10:35;8.37;;;4.90;;
3175;SDS011;1599;51.564;6.990;2023-05-24T19:13:00;8.97;;;5.20;;
3175;SDS011;1599;51.564;6.990;2023-05-24T19:15:26;10.47;;;4.97;;
3175;SDS011;1599;51.564;6.990;2023-05-24T19:17:53;14.33;;;5.60;;
3175;SDS011;1599;51.564;6.990;2023-05-24T19:20:25;11.43;;;5.33;;
3175;SDS011;1599;51.564;6.990;2023-05-24T19:22:51;16.53;;;6.37;;
3175;SDS011;1599;51.564;6.990;2023-05-24T19:25:16;16.57;;;6.80;;
3175;SDS011;1599;51.564;6.990;2023-05-24T19:27:42;8.67;;;5.13;;
3175;SDS011;1599;51.564;6.990;2023-05-24T19:30:07;10.90;;;6.17;;
3175;SDS011;1599;51.564;6.990;2023-05-24T19:32:33;10.00;;;6.20;;
3175;SDS011;1599;51.564;6.990;2023-05-24T19:35:04;10.53;;;5.70;;
3175;SDS011;1599;51.564;6.990;2023-05-24T19:37:39;17.90;;;5.40;;
3175;SDS011;1599;51.564;6.990;2023-05-24T19:40:09;8.47;;;5.63;;
3175;SDS011;1599;51.564;6.990;2023-05-24T19:42:37;10.87;;;6.13;;
3175;SDS011;1599;51.564;6.990;2023-05-24T19:45:15;13.73;;;6.40;;
3175;SDS011;1599;51.564;6.990;2023-05-24T19:48:25;14.90;;;5.43;;
3175;SDS011;1599;51.564;6.990;2023-05-24T19:50:58;12.30;;;5.87;;
3175;SDS011;1599;51.564;6.990;2023-05-24T19:53:28;9.80;;;5.53;;
3175;SDS011;1599;51.564;6.990;2023-05-24T19:56:32;10.93;;;6.10;;
3175;SDS011;1599;51.564;6.990;2023-05-24T19:59:03;9.83;;;5.93;;
3175;SDS011;1599;51.564;6.990;2023-05-24T20:01:31;13.10;;;6.00;;
3175;SDS011;1599;51.564;6.990;2023-05-24T20:03:57;8.63;;;5.50;;
3175;SDS011;1599;51.564;6.990;2023-05-24T20:06:33;12.60;;;6.53;;
3175;SDS011;1599;51.564;6.990;2023-05-24T20:08:58;11.30;;;7.10;;
3175;SDS011;1599;51.564;6.990;2023-05-24T20:11:25;10.70;;;5.50;;
3175;SDS011;1599;51.564;6.990;2023-05-24T20:13:50;10.03;;;5.37;;
3175;SDS011;1599;51.564;6.990;2023-05-24T20:16:20;14.80;;;6.70;;
3175;SDS011;1599;51.564;6.990;2023-05-24T20:18:46;8.37;;;5.10;;
3175;SDS011;1599;51.564;6.990;2023-05-24T20:21:13;14.00;;;6.53;;
3175;SDS011;1599;51.564;6.990;2023-05-24T20:23:41;8.87;;;5.17;;
3175;SDS011;1599;51.564;6.990;2023-05-24T20:26:07;16.33;;;6.03;;
3175;SDS011;1599;51.564;6.990;2023-05-24T20:28:32;14.53;;;6.00;;
3175;SDS011;1599;51.564;6.990;2023-05-24T20:30:58;14.80;;;7.03;;
3175;SDS011;1599;51.564;6.990;2023-05-24T20:33:23;15.60;;;6.80;;
3175;SDS011;1599;51.564;6.990;2023-05-24T20:35:49;9.20;;;6.83;;
3175;SDS011;1599;51.564;6.990;2023-05-24T20:38:16;10.53;;;6.10;;
3175;SDS011;1599;51.564;6.990;2023-05-24T20:40:42;10.73;;;6.57;;
3175;SDS011;1599;51.564;6.990;2023-05-24T20:43:08;11.33;;;6.80;;
3175;SDS011;1599;51.564;6.990;2023-05-24T20:45:34;13.57;;;7.07;;
3175;SDS011;1599;51.564;6.990;2023-05-24T20:47:59;12.83;;;7.10;;
3175;SDS011;1599;51.564;6.990;2023-05-24T20:50:25;12.30;;;6.67;;
3175;SDS011;1599;51.564;6.990;2023-05-24T20:52:50;13.20;;;6.30;;
3175;SDS011;1599;51.564;6.990;2023-05-24T20:55:16;10.30;;;5.83;;
3175;SDS011;1599;51.564;6.990;2023-05-24T20:57:42;11.63;;;6.90;;
3175;SDS011;1599;51.564;6.990;2023-05-24T21:00:09;13.83;;;7.10;;
3175;SDS011;1599;51.564;6.990;2023-05-24T21:02:35;12.73;;;6.83;;
3175;SDS011;1599;51.564;6.990;2023-05-24T21:05:01;14.53;;;7.73;;
3175;SDS011;1599;51.564;6.990;2023-05-24T21:07:27;12.87;;;7.00;;
3175;SDS011;1599;51.564;6.990;2023-05-24T21:09:53;13.43;;;7.77;;
3175;SDS011;1599;51.564;6.990;2023-05-24T21:12:18;11.30;;;7.20;;
3175;SDS011;1599;51.564;6.990;2023-05-24T21:14:44;11.37;;;7.43;;
3175;SDS011;1599;51.564;6.990;2023-05-24T21:17:10;10.60;;;7.53;;
3175;SDS011;1599;51.564;6.990;2023-05-24T21:19:35;18.70;;;8.73;;
3175;SDS011;1599;51.564;6.990;2023-05-24T21:22:01;18.03;;;9.43;;
3175;SDS011;1599;51.564;6.990;2023-05-24T21:24:27;17.70;;;9.07;;
3175;SDS011;1599;51.564;6.990;2023-05-24T21:26:52;14.57;;;7.97;;
3175;SDS011;1599;51.564;6.990;2023-05-24T21:29:18;18.63;;;8.30;;
3175;SDS011;1599;51.564;6.990;2023-05-24T21:31:43;13.30;;;8.70;;
3175;SDS011;1599;51.564;6.990;2023-05-24T21:34:09;13.07;;;8.90;;
3175;SDS011;1599;51.564;6.990;2023-05-24T21:36:35;16.63;;;7.80;;
3175;SDS011;1599;51.564;6.990;2023-05-24T21:39:01;11.50;;;7.10;;
3175;SDS011;1599;51.564;6.990;2023-05-24T21:41:36;17.27;;;8.63;;
3175;SDS011;1599;51.564;6.990;2023-05-24T21:44:01;14.73;;;7.50;;
3175;SDS011;1599;51.564;6.990;2023-05-24T21:46:28;13.47;;;7.83;;
3175;SDS011;1599;51.564;6.990;2023-05-24T21:48:54;18.00;;;10.37;;
3175;SDS011;1599;51.564;6.990;2023-05-24T22:08:16;15.23;;;10.20;;
3175;SDS011;1599;51.564;6.990;2023-05-24T22:10:53;17.40;;;9.60;;
3175;SDS011;1599;51.564;6.990;2023-05-24T22:13:44;12.70;;;7.80;;
3175;SDS011;1599;51.564;6.990;2023-05-24T22:20:37;16.83;;;9.90;;
3175;SDS011;1599;51.564;6.990;2023-05-24T22:23:14;16.47;;;9.93;;
3175;SDS011;1599;51.564;6.990;2023-05-24T22:26:34;18.23;;;10.80;;
3175;SDS011;1599;51.564;6.990;2023-05-24T22:36:32;16.90;;;8.73;;
3175;SDS011;1599;51.564;6.990;2023-05-24T22:40:11;11.23;;;7.60;;
3175;SDS011;1599;51.564;6.990;2023-05-24T23:00:25;13.73;;;6.43;;
3175;SDS011;1599;51.564;6.990;2023-05-24T23:10:22;16.00;;;6.70;;
3175;SDS011;1599;51.564;6.990;2023-05-24T23:12:48;13.63;;;6.83;;
3175;SDS011;1599;51.564;6.990;2023-05-24T23:15:14;20.20;;;7.90;;
3175;SDS011;1599;51.564;6.990;2023-05-24T23:17:42;26.40;;;8.23;;
3175;SDS011;1599;51.564;6.990;2023-05-24T23:20:08;13.30;;;7.40;;
3175;SDS011;1599;51.564;6.990;2023-05-24T23:22:34;12.73;;;6.23;;
3175;SDS011;1599;51.564;6.990;2023-05-24T23:25:02;10.50;;;6.30;;
3175;SDS011;1599;51.564;6.990;2023-05-24T23:27:28;13.47;;;6.20;;
3175;SDS011;1599;51.564;6.990;2023-05-24T23:29:53;11.63;;;7.20;;
3175;SDS011;1599;51.564;6.990;2023-05-24T23:32:19;13.30;;;6.20;;
3175;SDS011;1599;51.564;6.990;2023-05-24T23:34:45;11.50;;;6.60;;
3175;SDS011;1599;51.564;6.990;2023-05-24T23:37:10;12.33;;;6.20;;
3175;SDS011;1599;51.564;6.990;2023-05-24T23:39:36;11.90;;;5.93;;
3175;SDS011;1599;51.564;6.990;2023-05-24T23:42:02;11.13;;;6.00;;